• Join FlightAware (Why Join?)
  • Login
  • US Flag 
Trick or treat! (Boo!!) 
01:52AM EDT


 

Airport Tracker/Info


-or-


 

Live Flight TrackerFlight Track Log ✈ AAY829 ✈ 02-Aug-2014 ✈ KGSP - KPIE

Flight Track Log - Related Links

Times and Time Zones

All times are in EDT time to prevent confusion due to time zone crossing. See the AAY829 flight status page for this flight to view local times or setup timezone preferences in your user account.

Time Position Orientation Groundspeed Altitude Reporting Facility
EDT Latitude Longitude Course Direction KTS MPH feet Rate Location/Type
04:26PM 34.9253 -82.1364 178° South 223 257 3,900  Level Atlanta Center
04:27PM 34.8458 -82.1331 178° South 219 252 6,700 2,880 Climbing Atlanta Center
04:28PM 34.7667 -82.1347 181° South 256 295 9,700 2,100 Climbing Atlanta Center
04:29PM 34.6747 -82.1344 180° South 289 333 10,900 2,400 Climbing Atlanta Center
04:30PM 34.5767 -82.1367 181° South 330 380 14,600 2,700 Climbing Atlanta Center
04:31PM 34.4808 -82.1414 182° South 343 395 16,400 1,140 Climbing Atlanta Center
04:32PM 34.3703 -82.1436 181° South 372 428 16,900 1,020 Climbing Atlanta Center
04:33PM 34.2639 -82.1536 184° South 389 448 18,500 1,620 Climbing Atlanta Center
04:34PM 34.1514 -82.1686 186° South 395 455 20,200 1,620 Climbing Atlanta Center
04:35PM 34.0369 -82.1789 184° South 407 468 21,800 1,500 Climbing Atlanta Center
04:36PM 33.9203 -82.1914 185° South 412 474 23,300 1,200 Climbing Atlanta Center
04:37PM 33.8014 -82.2039 185° South 423 487 24,300 1,140 Climbing Atlanta Center
04:38PM 33.6806 -82.2164 185° South 435 501 25,600 1,200 Climbing Atlanta Center
04:39PM 33.5556 -82.2292 185° South 440 506 26,800 1,080 Climbing Atlanta Center
04:40PM 33.4325 -82.2442 186° South 440 506 27,800 1,200 Climbing Atlanta Center
04:41PM 33.3117 -82.2592 186° South 440 506 29,200 1,320 Climbing Atlanta Center
04:42PM 33.1908 -82.2714 185° South 440 506 30,500 1,200 Climbing Atlanta Center
04:43PM 33.0700 -82.2864 186° South 440 506 31,700 1,020 Climbing Atlanta Center
04:44PM 32.9492 -82.2986 185° South 440 506 32,600 1,080 Climbing Atlanta Center
04:45PM 32.8303 -82.3108 185° South 440 506 33,900 780 Climbing Atlanta Center
04:46PM 32.7114 -82.3231 185° South 440 506 34,200 600 Climbing Atlanta Center
04:47PM 32.5906 -82.3378 186° South 440 506 35,200 660 Climbing Atlanta Center
04:48PM 32.4158 -82.3561 185° South 430 495 36,000 300 Climbing Jacksonville Center
04:49PM 32.2992 -82.3667 184° South 424 488 36,000  Level Jacksonville Center
04:50PM 32.1800 -82.3772 184° South 424 488 36,000  Level Jacksonville Center
04:51PM 32.0611 -82.3925 186° South 424 488 36,000  Level Jacksonville Center
04:52PM 31.9339 -82.4053 185° South 424 488 36,000  Level Jacksonville Center
04:53PM 31.8150 -82.4158 184° South 424 488 36,000  Level Jacksonville Center
04:54PM 31.6958 -82.4311 186° South 424 488 36,000  Level Jacksonville Center
04:55PM 31.5750 -82.4414 184° South 430 495 36,000  Level Jacksonville Center
04:56PM 31.4558 -82.4542 185° South 430 495 36,000 -60 Level Jacksonville Center
04:57PM 31.3475 -82.4692 187° South 430 495 35,900  Descending Jacksonville Center
04:58PM 31.2242 -82.4819 185° South 436 502 36,000  Climbing Jacksonville Center
04:59PM 31.1053 -82.4922 184° South 436 502 36,000  Level Jacksonville Center
05:00PM 30.9822 -82.5072 186° South 442 509 36,000  Level Jacksonville Center
05:01PM 30.8611 -82.5200 185° South 442 509 36,000  Level Jacksonville Center
05:02PM 30.7358 -82.5300 184° South 448 516 36,000  Level Jacksonville Center
05:03PM 30.6128 -82.5475 187° South 448 516 36,000 -240 Level Jacksonville Center
05:04PM 30.5147 -82.6250 214° Southwest 420 483 35,600 -660 Descending Jacksonville Center
05:05PM 30.4522 -82.7358 237° Southwest 409 471 34,700 -960 Descending Jacksonville Center
05:06PM 30.3897 -82.8589 240° Southwest 424 488 33,700 -1,020 Descending Jacksonville Center
05:07PM 30.3250 -82.9792 238° Southwest 441 507 32,700 -1,020 Descending Jacksonville Center
05:08PM 30.2581 -83.1019 238° Southwest 447 514 31,700 -960 Descending Jacksonville Center
05:09PM 30.1931 -83.2147 236° Southwest 447 514 30,800 -1,020 Descending Jacksonville Center
05:10PM 30.0656 -83.2694 200° South 417 480 29,700 -1,080 Descending Jacksonville Center
05:11PM 29.9486 -83.3050 195° South 436 502 28,700 -960 Descending Jacksonville Center
05:12PM 29.8314 -83.3381 194° South 441 507 27,800 -960 Descending Jacksonville Center
05:13PM 29.7167 -83.3708 194° South 435 501 26,800 -1,020 Descending Jacksonville Center
05:14PM 29.6017 -83.4036 194° South 435 501 25,800 -1,020 Descending Jacksonville Center
05:15PM 29.4886 -83.4342 193° South 429 494 24,800 -900 Descending Jacksonville Center
05:16PM 29.3697 -83.4692 194° South 429 494 24,000 -420 Descending Jacksonville Center
05:17PM 29.2525 -83.5019 194° South 429 494 24,000 -120 Level Jacksonville Center
05:18PM 29.1419 -83.4631 163° South 415 478 23,800 -600 Descending Jacksonville Center
05:19PM 29.0381 -83.3936 150° Southeast 411 473 22,800 -960 Descending Jacksonville Center
05:20PM 28.9339 -83.3292 152° Southeast 421 484 21,900 -960 Descending Jacksonville Center
05:21PM 28.8339 -83.2647 151° Southeast 421 484 20,900 -1,440 Descending Jacksonville Center
05:22PM 28.7339 -83.2028 151° Southeast 416 479 19,100 -1,920 Descending Jacksonville Center
05:24PM 28.6000 -83.1167 151° Southeast 390 449 16,400 -1,920 Descending Tampa TRACON
05:25PM 28.5000 -83.0500 150° Southeast 367 422 14,600 -1,800 Descending Tampa TRACON
05:26PM 28.4167 -83.0000 152° Southeast 364 419 12,700 -1,740 Descending Tampa TRACON
05:27PM 28.3167 -82.9500 156° South 358 412 11,000 -1,320 Descending Tampa TRACON
05:28PM 28.2286 -82.9022 154° Southeast 350 403 9,900 -900 Descending Miami Center
05:29PM 28.1283 -82.8758 167° South 309 356 9,000 -1,260 Descending Miami Center
05:30PM 28.0492 -82.8561 168° South 296 341 7,400 -1,920 Descending Miami Center
05:31PM 27.9833 -82.8333 163° South 281 323 5,500 -2,160 Descending Tampa TRACON
05:32PM 27.9000 -82.8167 170° South 272 313 3,500 -1,500 Descending Tampa TRACON
05:33PM 27.8667 -82.7833 139° Southeast 242 278 2,900 -660 Descending Tampa TRACON
05:34PM 27.8167 -82.7333 139° Southeast 208 239 2,300 -600 Descending Tampa TRACON
05:35PM 27.8167 -82.6833 90° East 184 212 1,800 -780 Descending Tampa TRACON
05:36PM 27.8500 -82.6833 360° North 128 147 900 -780 Descending Tampa TRACON
05:37PM 27.8833 -82.6833 360° North 128 147 300 -600 Descending Tampa TRACON